sensor_id;sensor_type;location;lat;lon;timestamp;temperature;humidity
55369;DHT22;41247;49.736;8.752;2022-09-09T00:00:34;16.30;99.90
55369;DHT22;41247;49.736;8.752;2022-09-09T00:04:27;16.20;99.90
55369;DHT22;41247;49.736;8.752;2022-09-09T00:08:18;16.20;99.90
55369;DHT22;41247;49.736;8.752;2022-09-09T00:12:10;16.20;99.90
55369;DHT22;41247;49.736;8.752;2022-09-09T00:20:02;16.20;99.90
55369;DHT22;41247;49.736;8.752;2022-09-09T00:23:54;16.30;99.90
55369;DHT22;41247;49.736;8.752;2022-09-09T00:27:49;16.30;99.90
55369;DHT22;41247;49.736;8.752;2022-09-09T00:31:31;16.30;99.90
55369;DHT22;41247;49.736;8.752;2022-09-09T00:35:29;16.40;99.90
55369;DHT22;41247;49.736;8.752;2022-09-09T00:39:38;16.40;99.90
55369;DHT22;41247;49.736;8.752;2022-09-09T00:43:29;16.40;99.90
55369;DHT22;41247;49.736;8.752;2022-09-09T00:47:44;16.40;99.90
55369;DHT22;41247;49.736;8.752;2022-09-09T00:59:52;16.50;99.90
55369;DHT22;41247;49.736;8.752;2022-09-09T01:03:56;16.50;99.90
55369;DHT22;41247;49.736;8.752;2022-09-09T01:07:37;16.60;99.90
55369;DHT22;41247;49.736;8.752;2022-09-09T01:11:35;16.70;99.90
55369;DHT22;41247;49.736;8.752;2022-09-09T01:15:26;16.70;99.90
55369;DHT22;41247;49.736;8.752;2022-09-09T01:19:10;16.60;99.90
55369;DHT22;41247;49.736;8.752;2022-09-09T01:23:28;16.60;99.90
55369;DHT22;41247;49.736;8.752;2022-09-09T01:27:23;16.50;99.90
55369;DHT22;41247;49.736;8.752;2022-09-09T01:31:06;16.40;99.90
55369;DHT22;41247;49.736;8.752;2022-09-09T01:34:48;16.30;99.90
55369;DHT22;41247;49.736;8.752;2022-09-09T01:38:31;16.30;99.90
55369;DHT22;41247;49.736;8.752;2022-09-09T01:42:15;16.40;99.90
55369;DHT22;41247;49.736;8.752;2022-09-09T01:45:59;16.40;99.90
55369;DHT22;41247;49.736;8.752;2022-09-09T01:49:40;16.30;99.90
55369;DHT22;41247;49.736;8.752;2022-09-09T01:53:22;16.20;99.90
55369;DHT22;41247;49.736;8.752;2022-09-09T01:57:20;16.20;99.90
55369;DHT22;41247;49.736;8.752;2022-09-09T02:05:49;16.30;99.90
55369;DHT22;41247;49.736;8.752;2022-09-09T02:09:23;16.40;99.90
55369;DHT22;41247;49.736;8.752;2022-09-09T02:13:12;16.40;99.90
55369;DHT22;41247;49.736;8.752;2022-09-09T02:16:59;16.30;99.90
55369;DHT22;41247;49.736;8.752;2022-09-09T02:20:44;16.20;99.90
55369;DHT22;41247;49.736;8.752;2022-09-09T02:24:26;16.10;99.90
55369;DHT22;41247;49.736;8.752;2022-09-09T02:28:09;16.10;99.90
55369;DHT22;41247;49.736;8.752;2022-09-09T02:31:53;16.00;99.90
55369;DHT22;41247;49.736;8.752;2022-09-09T02:35:37;16.00;99.90
55369;DHT22;41247;49.736;8.752;2022-09-09T02:39:18;15.90;99.90
55369;DHT22;41247;49.736;8.752;2022-09-09T02:42:58;15.90;99.90
55369;DHT22;41247;49.736;8.752;2022-09-09T02:51:06;15.80;99.90
55369;DHT22;41247;49.736;8.752;2022-09-09T02:54:50;15.70;99.90
55369;DHT22;41247;49.736;8.752;2022-09-09T02:58:35;15.70;99.90
55369;DHT22;41247;49.736;8.752;2022-09-09T03:02:16;15.70;99.90
55369;DHT22;41247;49.736;8.752;2022-09-09T03:05:57;15.60;99.90
55369;DHT22;41247;49.736;8.752;2022-09-09T03:09:37;15.50;99.90
55369;DHT22;41247;49.736;8.752;2022-09-09T03:13:18;15.50;99.90
55369;DHT22;41247;49.736;8.752;2022-09-09T03:16:58;15.50;99.90
55369;DHT22;41247;49.736;8.752;2022-09-09T03:20:39;15.50;99.90
55369;DHT22;41247;49.736;8.752;2022-09-09T03:24:20;15.40;99.90
55369;DHT22;41247;49.736;8.752;2022-09-09T03:28:00;15.40;99.90
55369;DHT22;41247;49.736;8.752;2022-09-09T03:31:41;15.30;99.90
55369;DHT22;41247;49.736;8.752;2022-09-09T03:35:22;15.30;99.90
55369;DHT22;41247;49.736;8.752;2022-09-09T03:39:03;15.20;99.90
55369;DHT22;41247;49.736;8.752;2022-09-09T03:42:43;15.20;99.90
55369;DHT22;41247;49.736;8.752;2022-09-09T03:46:25;15.10;99.90
55369;DHT22;41247;49.736;8.752;2022-09-09T03:50:08;15.00;99.90
55369;DHT22;41247;49.736;8.752;2022-09-09T03:53:48;15.00;99.90
55369;DHT22;41247;49.736;8.752;2022-09-09T03:57:29;15.00;99.90
55369;DHT22;41247;49.736;8.752;2022-09-09T04:01:11;14.90;99.90
55369;DHT22;41247;49.736;8.752;2022-09-09T04:04:53;14.80;99.90
55369;DHT22;41247;49.736;8.752;2022-09-09T04:08:33;14.80;99.90
55369;DHT22;41247;49.736;8.752;2022-09-09T04:12:14;14.80;99.90
55369;DHT22;41247;49.736;8.752;2022-09-09T04:15:56;14.70;99.90
55369;DHT22;41247;49.736;8.752;2022-09-09T04:19:38;14.70;99.90
55369;DHT22;41247;49.736;8.752;2022-09-09T04:23:19;14.70;99.90
55369;DHT22;41247;49.736;8.752;2022-09-09T04:27:01;14.70;99.90
55369;DHT22;41247;49.736;8.752;2022-09-09T04:30:42;14.70;99.90
55369;DHT22;41247;49.736;8.752;2022-09-09T04:34:24;14.60;99.90
55369;DHT22;41247;49.736;8.752;2022-09-09T04:38:05;14.60;99.90
55369;DHT22;41247;49.736;8.752;2022-09-09T04:41:45;14.60;99.90
55369;DHT22;41247;49.736;8.752;2022-09-09T04:45:26;14.60;99.90
55369;DHT22;41247;49.736;8.752;2022-09-09T04:49:07;14.60;99.90
55369;DHT22;41247;49.736;8.752;2022-09-09T04:52:47;14.60;99.90
55369;DHT22;41247;49.736;8.752;2022-09-09T04:56:28;14.60;99.90
55369;DHT22;41247;49.736;8.752;2022-09-09T05:00:11;14.60;99.90
55369;DHT22;41247;49.736;8.752;2022-09-09T05:03:52;14.50;99.90
55369;DHT22;41247;49.736;8.752;2022-09-09T05:07:34;14.50;99.90
55369;DHT22;41247;49.736;8.752;2022-09-09T05:11:35;14.50;99.90
55369;DHT22;41247;49.736;8.752;2022-09-09T05:15:23;14.50;99.90
55369;DHT22;41247;49.736;8.752;2022-09-09T06:17:18;15.20;99.90
55369;DHT22;41247;49.736;8.752;2022-09-09T06:21:05;15.20;99.90
55369;DHT22;41247;49.736;8.752;2022-09-09T06:24:47;15.30;99.90
55369;DHT22;41247;49.736;8.752;2022-09-09T06:28:27;15.40;99.90
55369;DHT22;41247;49.736;8.752;2022-09-09T06:32:08;15.50;99.90
55369;DHT22;41247;49.736;8.752;2022-09-09T06:35:52;15.40;99.90
55369;DHT22;41247;49.736;8.752;2022-09-09T06:39:33;15.30;99.90
55369;DHT22;41247;49.736;8.752;2022-09-09T06:43:14;15.40;99.90
55369;DHT22;41247;49.736;8.752;2022-09-09T06:47:00;15.60;99.90
55369;DHT22;41247;49.736;8.752;2022-09-09T06:50:41;15.80;99.90
55369;DHT22;41247;49.736;8.752;2022-09-09T06:54:22;15.90;99.90
55369;DHT22;41247;49.736;8.752;2022-09-09T06:58:05;15.90;99.90
55369;DHT22;41247;49.736;8.752;2022-09-09T07:01:48;16.00;99.90
55369;DHT22;41247;49.736;8.752;2022-09-09T07:05:29;16.30;99.90
55369;DHT22;41247;49.736;8.752;2022-09-09T07:09:11;16.30;99.90
55369;DHT22;41247;49.736;8.752;2022-09-09T07:12:53;16.20;99.90
55369;DHT22;41247;49.736;8.752;2022-09-09T07:16:34;16.30;99.90
55369;DHT22;41247;49.736;8.752;2022-09-09T07:20:15;16.40;99.90
55369;DHT22;41247;49.736;8.752;2022-09-09T07:23:56;16.60;99.90
55369;DHT22;41247;49.736;8.752;2022-09-09T07:27:37;16.70;99.90
55369;DHT22;41247;49.736;8.752;2022-09-09T07:31:20;16.50;99.90
55369;DHT22;41247;49.736;8.752;2022-09-09T07:35:02;16.60;99.90
55369;DHT22;41247;49.736;8.752;2022-09-09T07:38:46;16.60;99.90
55369;DHT22;41247;49.736;8.752;2022-09-09T07:42:27;16.50;99.90
55369;DHT22;41247;49.736;8.752;2022-09-09T07:46:09;16.40;99.90
55369;DHT22;41247;49.736;8.752;2022-09-09T07:49:50;16.50;99.90
55369;DHT22;41247;49.736;8.752;2022-09-09T07:53:30;16.40;99.90
55369;DHT22;41247;49.736;8.752;2022-09-09T07:57:11;16.30;99.90
55369;DHT22;41247;49.736;8.752;2022-09-09T08:00:51;16.40;99.90
55369;DHT22;41247;49.736;8.752;2022-09-09T08:04:32;16.60;99.90
55369;DHT22;41247;49.736;8.752;2022-09-09T08:08:13;16.70;99.90
55369;DHT22;41247;49.736;8.752;2022-09-09T08:11:53;16.90;99.90
55369;DHT22;41247;49.736;8.752;2022-09-09T08:15:35;17.00;99.90
55369;DHT22;41247;49.736;8.752;2022-09-09T08:19:16;17.10;99.90
55369;DHT22;41247;49.736;8.752;2022-09-09T08:22:57;17.20;99.90
55369;DHT22;41247;49.736;8.752;2022-09-09T08:26:42;17.20;99.90
55369;DHT22;41247;49.736;8.752;2022-09-09T08:30:25;17.30;99.90
55369;DHT22;41247;49.736;8.752;2022-09-09T08:34:06;17.50;99.90
55369;DHT22;41247;49.736;8.752;2022-09-09T08:37:47;17.60;99.90
55369;DHT22;41247;49.736;8.752;2022-09-09T08:46:18;17.80;99.90
55369;DHT22;41247;49.736;8.752;2022-09-09T08:54:09;17.80;99.90
55369;DHT22;41247;49.736;8.752;2022-09-09T08:57:52;18.00;99.90
55369;DHT22;41247;49.736;8.752;2022-09-09T09:05:47;18.00;99.90
55369;DHT22;41247;49.736;8.752;2022-09-09T09:09:51;17.90;99.90
55369;DHT22;41247;49.736;8.752;2022-09-09T09:17:21;18.20;99.90
55369;DHT22;41247;49.736;8.752;2022-09-09T09:21:06;18.40;99.90
55369;DHT22;41247;49.736;8.752;2022-09-09T09:25:31;18.40;99.90
55369;DHT22;41247;49.736;8.752;2022-09-09T09:29:16;18.50;99.90
55369;DHT22;41247;49.736;8.752;2022-09-09T09:33:05;18.80;99.90
55369;DHT22;41247;49.736;8.752;2022-09-09T09:36:59;19.10;99.90
55369;DHT22;41247;49.736;8.752;2022-09-09T09:40:49;19.20;99.90
55369;DHT22;41247;49.736;8.752;2022-09-09T09:44:32;19.10;99.90
55369;DHT22;41247;49.736;8.752;2022-09-09T09:48:13;18.90;99.90
55369;DHT22;41247;49.736;8.752;2022-09-09T09:52:00;18.60;99.90
55369;DHT22;41247;49.736;8.752;2022-09-09T09:55:55;18.20;99.90
55369;DHT22;41247;49.736;8.752;2022-09-09T09:59:46;17.80;99.90
55369;DHT22;41247;49.736;8.752;2022-09-09T10:03:35;17.90;99.90
55369;DHT22;41247;49.736;8.752;2022-09-09T10:07:19;18.20;99.90
55369;DHT22;41247;49.736;8.752;2022-09-09T10:19:15;17.70;99.90
55369;DHT22;41247;49.736;8.752;2022-09-09T10:27:38;17.90;99.90
55369;DHT22;41247;49.736;8.752;2022-09-09T10:32:02;18.30;99.90
55369;DHT22;41247;49.736;8.752;2022-09-09T10:40:25;18.90;99.90
55369;DHT22;41247;49.736;8.752;2022-09-09T10:44:59;18.80;99.90
55369;DHT22;41247;49.736;8.752;2022-09-09T10:53:08;18.80;99.90
55369;DHT22;41247;49.736;8.752;2022-09-09T10:57:00;19.10;99.90
55369;DHT22;41247;49.736;8.752;2022-09-09T11:00:46;19.20;99.90
55369;DHT22;41247;49.736;8.752;2022-09-09T11:08:27;19.50;99.90
55369;DHT22;41247;49.736;8.752;2022-09-09T11:12:15;19.60;99.90
55369;DHT22;41247;49.736;8.752;2022-09-09T11:16:04;19.70;99.90
55369;DHT22;41247;49.736;8.752;2022-09-09T11:19:52;19.80;99.90
55369;DHT22;41247;49.736;8.752;2022-09-09T11:23:40;20.10;99.90
55369;DHT22;41247;49.736;8.752;2022-09-09T11:27:30;20.30;99.90
55369;DHT22;41247;49.736;8.752;2022-09-09T11:39:47;20.50;99.90
55369;DHT22;41247;49.736;8.752;2022-09-09T11:43:48;20.80;99.90
55369;DHT22;41247;49.736;8.752;2022-09-09T11:47:31;20.90;99.90
55369;DHT22;41247;49.736;8.752;2022-09-09T11:55:10;20.30;99.90
55369;DHT22;41247;49.736;8.752;2022-09-09T11:59:29;19.90;99.90
55369;DHT22;41247;49.736;8.752;2022-09-09T12:03:41;19.60;99.90
55369;DHT22;41247;49.736;8.752;2022-09-09T12:07:41;19.60;99.90
55369;DHT22;41247;49.736;8.752;2022-09-09T12:11:32;19.50;99.90
55369;DHT22;41247;49.736;8.752;2022-09-09T12:15:23;19.50;99.90
55369;DHT22;41247;49.736;8.752;2022-09-09T12:27:23;19.30;99.90
55369;DHT22;41247;49.736;8.752;2022-09-09T12:35:28;19.00;99.90
55369;DHT22;41247;49.736;8.752;2022-09-09T12:39:22;19.20;99.90
55369;DHT22;41247;49.736;8.752;2022-09-09T12:43:21;19.10;99.90
55369;DHT22;41247;49.736;8.752;2022-09-09T12:47:03;18.80;99.90
55369;DHT22;41247;49.736;8.752;2022-09-09T12:50:45;18.80;99.90
55369;DHT22;41247;49.736;8.752;2022-09-09T12:54:26;18.70;99.90
55369;DHT22;41247;49.736;8.752;2022-09-09T12:58:11;18.60;99.90
55369;DHT22;41247;49.736;8.752;2022-09-09T13:01:59;18.60;99.90
55369;DHT22;41247;49.736;8.752;2022-09-09T13:05:39;18.50;99.90
55369;DHT22;41247;49.736;8.752;2022-09-09T13:09:20;18.80;99.90
55369;DHT22;41247;49.736;8.752;2022-09-09T13:13:02;19.20;99.90
55369;DHT22;41247;49.736;8.752;2022-09-09T13:16:42;19.80;99.90
55369;DHT22;41247;49.736;8.752;2022-09-09T13:20:24;20.20;99.90
55369;DHT22;41247;49.736;8.752;2022-09-09T13:24:07;20.30;99.90
55369;DHT22;41247;49.736;8.752;2022-09-09T13:28:23;20.20;99.90
55369;DHT22;41247;49.736;8.752;2022-09-09T13:32:15;20.10;99.90
55369;DHT22;41247;49.736;8.752;2022-09-09T13:35:59;19.90;99.90
55369;DHT22;41247;49.736;8.752;2022-09-09T13:39:51;19.60;99.90
55369;DHT22;41247;49.736;8.752;2022-09-09T13:43:44;19.30;99.90
55369;DHT22;41247;49.736;8.752;2022-09-09T13:47:36;18.30;99.90
55369;DHT22;41247;49.736;8.752;2022-09-09T13:51:37;17.60;99.90
55369;DHT22;41247;49.736;8.752;2022-09-09T13:55:20;17.20;99.90
55369;DHT22;41247;49.736;8.752;2022-09-09T13:59:03;16.70;99.90
55369;DHT22;41247;49.736;8.752;2022-09-09T14:02:47;15.70;99.90
55369;DHT22;41247;49.736;8.752;2022-09-09T14:06:29;15.10;99.90
55369;DHT22;41247;49.736;8.752;2022-09-09T14:10:11;15.10;99.90
55369;DHT22;41247;49.736;8.752;2022-09-09T14:13:52;15.20;99.90
55369;DHT22;41247;49.736;8.752;2022-09-09T14:17:33;15.40;99.90
55369;DHT22;41247;49.736;8.752;2022-09-09T14:21:14;15.70;99.90
55369;DHT22;41247;49.736;8.752;2022-09-09T14:24:54;16.00;99.90
55369;DHT22;41247;49.736;8.752;2022-09-09T14:28:36;17.20;99.90
55369;DHT22;41247;49.736;8.752;2022-09-09T14:32:16;18.00;99.90
55369;DHT22;41247;49.736;8.752;2022-09-09T14:35:58;18.90;99.90
55369;DHT22;41247;49.736;8.752;2022-09-09T14:39:40;19.70;99.90
55369;DHT22;41247;49.736;8.752;2022-09-09T14:43:20;20.00;99.90
55369;DHT22;41247;49.736;8.752;2022-09-09T14:47:01;19.30;99.90
55369;DHT22;41247;49.736;8.752;2022-09-09T14:50:42;18.60;99.90
55369;DHT22;41247;49.736;8.752;2022-09-09T14:54:22;17.90;99.90
55369;DHT22;41247;49.736;8.752;2022-09-09T14:58:04;17.50;99.90
55369;DHT22;41247;49.736;8.752;2022-09-09T15:01:45;17.40;99.90
55369;DHT22;41247;49.736;8.752;2022-09-09T15:05:25;17.20;99.90
55369;DHT22;41247;49.736;8.752;2022-09-09T15:09:06;17.00;99.90
55369;DHT22;41247;49.736;8.752;2022-09-09T15:12:46;16.90;99.90
55369;DHT22;41247;49.736;8.752;2022-09-09T15:16:28;16.70;99.90
55369;DHT22;41247;49.736;8.752;2022-09-09T15:20:09;16.70;99.90
55369;DHT22;41247;49.736;8.752;2022-09-09T15:23:50;16.60;99.90
55369;DHT22;41247;49.736;8.752;2022-09-09T15:27:30;16.50;99.90
55369;DHT22;41247;49.736;8.752;2022-09-09T15:31:14;16.50;99.90
55369;DHT22;41247;49.736;8.752;2022-09-09T15:34:56;16.40;99.90
55369;DHT22;41247;49.736;8.752;2022-09-09T15:38:36;16.40;99.90
55369;DHT22;41247;49.736;8.752;2022-09-09T15:42:17;16.30;99.90
55369;DHT22;41247;49.736;8.752;2022-09-09T15:46:24;16.20;99.90
55369;DHT22;41247;49.736;8.752;2022-09-09T15:50:04;16.10;99.90
55369;DHT22;41247;49.736;8.752;2022-09-09T15:53:45;16.20;99.90
55369;DHT22;41247;49.736;8.752;2022-09-09T15:57:26;16.10;99.90
55369;DHT22;41247;49.736;8.752;2022-09-09T16:01:09;16.00;99.90
55369;DHT22;41247;49.736;8.752;2022-09-09T16:04:50;16.00;99.90
55369;DHT22;41247;49.736;8.752;2022-09-09T16:08:35;15.70;99.90
55369;DHT22;41247;49.736;8.752;2022-09-09T16:12:17;15.30;99.90
55369;DHT22;41247;49.736;8.752;2022-09-09T16:15:58;14.80;99.90
55369;DHT22;41247;49.736;8.752;2022-09-09T16:19:38;14.50;99.90
55369;DHT22;41247;49.736;8.752;2022-09-09T16:23:19;14.50;99.90
55369;DHT22;41247;49.736;8.752;2022-09-09T16:26:59;14.60;99.90
55369;DHT22;41247;49.736;8.752;2022-09-09T16:30:40;14.80;99.90
55369;DHT22;41247;49.736;8.752;2022-09-09T16:34:21;14.90;99.90
55369;DHT22;41247;49.736;8.752;2022-09-09T16:38:02;15.00;99.90
55369;DHT22;41247;49.736;8.752;2022-09-09T16:41:44;15.00;99.90
55369;DHT22;41247;49.736;8.752;2022-09-09T16:45:25;14.80;99.90
55369;DHT22;41247;49.736;8.752;2022-09-09T16:49:11;14.80;99.90
55369;DHT22;41247;49.736;8.752;2022-09-09T16:52:53;14.80;99.90
55369;DHT22;41247;49.736;8.752;2022-09-09T16:56:36;14.80;99.90
55369;DHT22;41247;49.736;8.752;2022-09-09T17:00:18;14.90;99.90
55369;DHT22;41247;49.736;8.752;2022-09-09T17:04:00;14.90;99.90
55369;DHT22;41247;49.736;8.752;2022-09-09T17:07:42;14.90;99.90
55369;DHT22;41247;49.736;8.752;2022-09-09T17:11:23;14.80;99.90
55369;DHT22;41247;49.736;8.752;2022-09-09T17:15:04;14.80;99.90
55369;DHT22;41247;49.736;8.752;2022-09-09T17:18:45;14.70;99.90
55369;DHT22;41247;49.736;8.752;2022-09-09T17:22:26;14.70;99.90
55369;DHT22;41247;49.736;8.752;2022-09-09T17:26:09;14.70;99.90
55369;DHT22;41247;49.736;8.752;2022-09-09T17:29:51;14.70;99.90
55369;DHT22;41247;49.736;8.752;2022-09-09T17:33:37;14.70;99.90
55369;DHT22;41247;49.736;8.752;2022-09-09T17:37:20;14.60;99.90
55369;DHT22;41247;49.736;8.752;2022-09-09T17:41:05;14.70;99.90
55369;DHT22;41247;49.736;8.752;2022-09-09T17:44:49;14.70;99.90
55369;DHT22;41247;49.736;8.752;2022-09-09T17:48:30;14.70;99.90
55369;DHT22;41247;49.736;8.752;2022-09-09T17:52:10;14.70;99.90
55369;DHT22;41247;49.736;8.752;2022-09-09T17:55:51;14.60;99.90
55369;DHT22;41247;49.736;8.752;2022-09-09T17:59:32;14.60;99.90
55369;DHT22;41247;49.736;8.752;2022-09-09T18:03:13;14.60;99.90
55369;DHT22;41247;49.736;8.752;2022-09-09T18:06:53;14.60;99.90
55369;DHT22;41247;49.736;8.752;2022-09-09T18:10:34;14.60;99.90
55369;DHT22;41247;49.736;8.752;2022-09-09T18:14:20;14.50;99.90
55369;DHT22;41247;49.736;8.752;2022-09-09T18:18:02;14.00;99.90
55369;DHT22;41247;49.736;8.752;2022-09-09T18:21:43;13.60;99.90
55369;DHT22;41247;49.736;8.752;2022-09-09T18:25:24;13.40;99.90
55369;DHT22;41247;49.736;8.752;2022-09-09T18:29:07;13.40;99.90
55369;DHT22;41247;49.736;8.752;2022-09-09T18:32:50;13.30;99.90
55369;DHT22;41247;49.736;8.752;2022-09-09T18:36:42;13.20;99.90
55369;DHT22;41247;49.736;8.752;2022-09-09T18:40:30;13.20;99.90
55369;DHT22;41247;49.736;8.752;2022-09-09T18:44:20;13.20;99.90
55369;DHT22;41247;49.736;8.752;2022-09-09T18:48:03;13.20;99.90
55369;DHT22;41247;49.736;8.752;2022-09-09T18:51:44;13.20;99.90
55369;DHT22;41247;49.736;8.752;2022-09-09T18:55:25;13.20;99.90
55369;DHT22;41247;49.736;8.752;2022-09-09T18:59:07;13.10;99.90
55369;DHT22;41247;49.736;8.752;2022-09-09T19:02:49;13.10;99.90
55369;DHT22;41247;49.736;8.752;2022-09-09T19:06:31;13.00;99.90
55369;DHT22;41247;49.736;8.752;2022-09-09T19:10:12;12.90;99.90
55369;DHT22;41247;49.736;8.752;2022-09-09T19:13:58;12.80;99.90
55369;DHT22;41247;49.736;8.752;2022-09-09T19:17:40;12.80;99.90
55369;DHT22;41247;49.736;8.752;2022-09-09T19:21:26;12.80;99.90
55369;DHT22;41247;49.736;8.752;2022-09-09T19:25:08;12.70;99.90
55369;DHT22;41247;49.736;8.752;2022-09-09T19:28:49;12.80;99.90
55369;DHT22;41247;49.736;8.752;2022-09-09T19:32:29;12.80;99.90
55369;DHT22;41247;49.736;8.752;2022-09-09T19:36:12;12.70;99.90
55369;DHT22;41247;49.736;8.752;2022-09-09T19:39:54;12.50;99.90
55369;DHT22;41247;49.736;8.752;2022-09-09T19:43:35;12.60;99.90
55369;DHT22;41247;49.736;8.752;2022-09-09T19:47:17;12.60;99.90
55369;DHT22;41247;49.736;8.752;2022-09-09T19:51:05;12.60;99.90
55369;DHT22;41247;49.736;8.752;2022-09-09T19:54:48;12.60;99.90
55369;DHT22;41247;49.736;8.752;2022-09-09T19:58:32;12.50;99.90
55369;DHT22;41247;49.736;8.752;2022-09-09T20:02:13;12.50;99.90
55369;DHT22;41247;49.736;8.752;2022-09-09T20:05:54;12.50;99.90
55369;DHT22;41247;49.736;8.752;2022-09-09T20:09:34;12.50;99.90
55369;DHT22;41247;49.736;8.752;2022-09-09T20:13:15;12.50;99.90
55369;DHT22;41247;49.736;8.752;2022-09-09T20:16:56;12.50;99.90
55369;DHT22;41247;49.736;8.752;2022-09-09T20:20:40;12.50;99.90
55369;DHT22;41247;49.736;8.752;2022-09-09T20:24:21;12.50;99.90
55369;DHT22;41247;49.736;8.752;2022-09-09T20:28:02;12.50;99.90
55369;DHT22;41247;49.736;8.752;2022-09-09T20:31:43;12.50;99.90
55369;DHT22;41247;49.736;8.752;2022-09-09T20:35:24;12.60;99.90
55369;DHT22;41247;49.736;8.752;2022-09-09T20:39:08;12.60;99.90
55369;DHT22;41247;49.736;8.752;2022-09-09T20:42:50;12.60;99.90
55369;DHT22;41247;49.736;8.752;2022-09-09T20:46:33;12.70;99.90
55369;DHT22;41247;49.736;8.752;2022-09-09T20:50:15;12.70;99.90
55369;DHT22;41247;49.736;8.752;2022-09-09T20:53:58;12.70;99.90
55369;DHT22;41247;49.736;8.752;2022-09-09T20:57:39;12.70;99.90
55369;DHT22;41247;49.736;8.752;2022-09-09T21:01:20;12.60;99.90
55369;DHT22;41247;49.736;8.752;2022-09-09T21:05:01;12.70;99.90
55369;DHT22;41247;49.736;8.752;2022-09-09T21:08:42;12.70;99.90
55369;DHT22;41247;49.736;8.752;2022-09-09T21:12:23;12.70;99.90
55369;DHT22;41247;49.736;8.752;2022-09-09T21:16:06;12.70;99.90
55369;DHT22;41247;49.736;8.752;2022-09-09T21:19:48;12.70;99.90
55369;DHT22;41247;49.736;8.752;2022-09-09T21:23:28;12.80;99.90
55369;DHT22;41247;49.736;8.752;2022-09-09T21:27:09;12.80;99.90
55369;DHT22;41247;49.736;8.752;2022-09-09T21:30:51;12.80;99.90
55369;DHT22;41247;49.736;8.752;2022-09-09T21:34:33;12.80;99.90
55369;DHT22;41247;49.736;8.752;2022-09-09T21:38:16;12.80;99.90
55369;DHT22;41247;49.736;8.752;2022-09-09T21:41:58;12.80;99.90
55369;DHT22;41247;49.736;8.752;2022-09-09T21:45:39;12.80;99.90
55369;DHT22;41247;49.736;8.752;2022-09-09T21:49:20;12.80;99.90
55369;DHT22;41247;49.736;8.752;2022-09-09T21:53:01;12.80;99.90
55369;DHT22;41247;49.736;8.752;2022-09-09T21:56:41;12.90;99.90
55369;DHT22;41247;49.736;8.752;2022-09-09T22:00:22;12.90;99.90
55369;DHT22;41247;49.736;8.752;2022-09-09T22:04:03;12.90;99.90
55369;DHT22;41247;49.736;8.752;2022-09-09T22:07:43;12.80;99.90
55369;DHT22;41247;49.736;8.752;2022-09-09T22:11:24;12.80;99.90
55369;DHT22;41247;49.736;8.752;2022-09-09T22:15:05;12.80;99.90
55369;DHT22;41247;49.736;8.752;2022-09-09T22:18:54;12.80;99.90
55369;DHT22;41247;49.736;8.752;2022-09-09T22:22:36;12.80;99.90
55369;DHT22;41247;49.736;8.752;2022-09-09T22:26:16;12.90;99.90
55369;DHT22;41247;49.736;8.752;2022-09-09T22:29:57;12.90;99.90
55369;DHT22;41247;49.736;8.752;2022-09-09T22:33:37;12.90;99.90
55369;DHT22;41247;49.736;8.752;2022-09-09T22:37:18;13.00;99.90
55369;DHT22;41247;49.736;8.752;2022-09-09T22:40:59;13.00;99.90
55369;DHT22;41247;49.736;8.752;2022-09-09T22:44:40;13.00;99.90
55369;DHT22;41247;49.736;8.752;2022-09-09T22:48:21;13.00;99.90
55369;DHT22;41247;49.736;8.752;2022-09-09T22:52:01;12.90;99.90
55369;DHT22;41247;49.736;8.752;2022-09-09T22:55:53;12.90;99.90
55369;DHT22;41247;49.736;8.752;2022-09-09T22:59:36;12.90;99.90
55369;DHT22;41247;49.736;8.752;2022-09-09T23:03:17;13.00;99.90
55369;DHT22;41247;49.736;8.752;2022-09-09T23:06:58;13.00;99.90
55369;DHT22;41247;49.736;8.752;2022-09-09T23:10:39;13.00;99.90
55369;DHT22;41247;49.736;8.752;2022-09-09T23:14:19;13.00;99.90
55369;DHT22;41247;49.736;8.752;2022-09-09T23:18:00;13.00;99.90
55369;DHT22;41247;49.736;8.752;2022-09-09T23:21:42;13.00;99.90
55369;DHT22;41247;49.736;8.752;2022-09-09T23:25:24;12.90;99.90
55369;DHT22;41247;49.736;8.752;2022-09-09T23:29:05;12.90;99.90
55369;DHT22;41247;49.736;8.752;2022-09-09T23:32:48;12.90;99.90
55369;DHT22;41247;49.736;8.752;2022-09-09T23:36:29;12.90;99.90
55369;DHT22;41247;49.736;8.752;2022-09-09T23:40:10;12.90;99.90
55369;DHT22;41247;49.736;8.752;2022-09-09T23:43:52;12.90;99.90
55369;DHT22;41247;49.736;8.752;2022-09-09T23:47:33;13.00;99.90
55369;DHT22;41247;49.736;8.752;2022-09-09T23:51:13;13.10;99.90
55369;DHT22;41247;49.736;8.752;2022-09-09T23:54:54;13.10;99.90
55369;DHT22;41247;49.736;8.752;2022-09-09T23:58:35;13.20;99.90
